Panama City/Tyndall AFB, Florida
Current Conditions -  °F | °C
As of 1:58 PM on Tuesday 21 Oct 2014 (Local Time) from KPAM Reporting Station
Clear Clear  
Wind Chill: 81°   Ceiling: Unl
Heat Index: 81°   Visibility: 10mi
Dew Point: 56°   Wind: 5mph
Humidity: 42%   Direction: NA
Pressure: 29.96"   Gusts: NA
Location:  30.06°N, 85.58°W
Report Text: KPAM 211858Z AUTO VRB04KT 10SM CLR 27/13 A2996 RMK AO2 SLP148 T02710132 $
Loading
Personal Weather Stations






























Interactive Weather Map
Tropical Storm Tracking
New forecast layout! Learn more

10-Day Weather Forecast

Advertisements
Track Severe Weather on mobile